createdAt,value
2018-01-18T00:01:37.973Z,5.10
2018-01-18T00:04:08.575Z,5.37
2018-01-18T00:06:39.845Z,5.07
2018-01-18T00:09:09.940Z,5.90
2018-01-18T00:11:43.336Z,4.37
2018-01-18T00:14:20.785Z,4.70
2018-01-18T00:16:50.685Z,4.00
2018-01-18T00:19:20.121Z,4.13
2018-01-18T00:21:52.463Z,4.27
2018-01-18T00:24:22.490Z,4.10
2018-01-18T00:26:54.864Z,4.27
2018-01-18T00:29:28.512Z,4.17
2018-01-18T00:31:59.872Z,4.50
2018-01-18T00:34:37.218Z,4.83
2018-01-18T00:37:07.477Z,4.00
2018-01-18T00:39:40.205Z,5.70
2018-01-18T00:42:10.172Z,5.30
2018-01-18T00:44:41.919Z,4.70
2018-01-18T00:47:15.841Z,4.90
2018-01-18T00:52:18.682Z,4.57
2018-01-18T00:54:50.259Z,3.40
2018-01-18T00:57:19.826Z,4.00
2018-01-18T00:59:49.928Z,3.43
2018-01-18T01:02:23.989Z,3.00
2018-01-18T01:04:55.169Z,3.10
2018-01-18T01:07:27.309Z,3.43
2018-01-18T01:09:55.698Z,3.13
2018-01-18T01:12:25.737Z,3.37
2018-01-18T01:14:55.298Z,3.60
2018-01-18T01:17:24.637Z,3.87
2018-01-18T01:19:54.566Z,3.67
2018-01-18T01:22:23.120Z,3.27
2018-01-18T01:24:56.272Z,2.97
2018-01-18T01:27:33.510Z,3.00
2018-01-18T01:30:03.010Z,3.47
2018-01-18T01:32:34.845Z,3.53
2018-01-18T01:35:04.327Z,3.40
2018-01-18T01:37:36.016Z,3.37
2018-01-18T01:40:07.099Z,3.43
2018-01-18T01:42:36.592Z,3.90
2018-01-18T01:45:05.412Z,3.20
2018-01-18T01:47:33.458Z,3.40
2018-01-18T01:50:02.660Z,3.00
2018-01-18T01:52:30.742Z,3.03
2018-01-18T01:54:59.203Z,3.63
2018-01-18T01:57:31.016Z,3.37
2018-01-18T01:59:59.974Z,4.07
2018-01-18T02:02:28.244Z,3.50
2018-01-18T02:04:57.399Z,3.40
2018-01-18T02:07:27.282Z,3.40
2018-01-18T02:09:58.683Z,3.20
2018-01-18T02:12:27.962Z,3.03
2018-01-18T02:14:56.664Z,3.20
2018-01-18T02:17:25.154Z,3.47
2018-01-18T02:22:34.300Z,2.80
2018-01-18T02:25:03.474Z,2.73
2018-01-18T02:27:33.156Z,3.50
2018-01-18T02:30:02.269Z,2.87
2018-01-18T02:32:31.476Z,3.00
2018-01-18T02:35:00.179Z,2.73
2018-01-18T02:37:29.362Z,2.90
2018-01-18T02:39:58.492Z,1.93
2018-01-18T02:42:29.421Z,2.80
2018-01-18T02:45:00.386Z,2.00
2018-01-18T02:47:31.347Z,2.23
2018-01-18T02:50:00.032Z,2.00
2018-01-18T02:52:30.474Z,2.30
2018-01-18T02:54:59.242Z,2.17
2018-01-18T02:57:28.308Z,2.00
2018-01-18T02:59:57.194Z,1.97
2018-01-18T03:02:28.775Z,1.97
2018-01-18T03:05:00.193Z,2.30
2018-01-18T03:07:32.255Z,2.20
2018-01-18T03:10:01.169Z,2.57
2018-01-18T03:12:30.704Z,2.60
2018-01-18T03:14:59.486Z,2.13
2018-01-18T03:17:28.883Z,1.90
2018-01-18T03:19:58.864Z,2.50
2018-01-18T03:22:28.953Z,2.37
2018-01-18T03:25:00.534Z,2.60
2018-01-18T03:27:30.623Z,2.00
2018-01-18T03:32:39.506Z,2.40
2018-01-18T03:35:14.319Z,1.67
2018-01-18T03:37:43.465Z,3.30
2018-01-18T03:40:17.747Z,2.40
2018-01-18T03:42:47.858Z,2.50
2018-01-18T03:45:18.192Z,1.90
2018-01-18T03:47:48.786Z,2.10
2018-01-18T03:50:19.716Z,1.97
2018-01-18T03:52:50.309Z,2.40
2018-01-18T03:55:19.256Z,2.30
2018-01-18T03:57:48.966Z,2.20
2018-01-18T04:00:19.071Z,2.37
2018-01-18T04:02:47.914Z,2.27
2018-01-18T04:05:17.105Z,2.10
2018-01-18T04:07:50.649Z,2.40
2018-01-18T04:10:21.152Z,2.20
2018-01-18T04:12:50.343Z,2.10
2018-01-18T04:15:20.161Z,2.63
2018-01-18T04:17:49.866Z,2.50
2018-01-18T04:20:18.715Z,2.17
2018-01-18T04:22:50.265Z,2.40
2018-01-18T04:25:52.816Z,2.77
2018-01-18T04:28:20.682Z,2.20
2018-01-18T04:30:49.729Z,2.10
2018-01-18T04:33:19.579Z,2.53
2018-01-18T04:35:48.627Z,2.27
2018-01-18T04:38:25.271Z,2.20
2018-01-18T04:40:53.122Z,2.37
2018-01-18T04:43:22.277Z,2.17
2018-01-18T04:45:50.087Z,2.30
2018-01-18T04:48:17.931Z,2.00
2018-01-18T04:50:47.839Z,2.30
2018-01-18T04:53:18.190Z,3.30
2018-01-18T04:55:47.896Z,2.13
2018-01-18T04:58:18.311Z,2.00
2018-01-18T05:00:47.813Z,2.27
2018-01-18T05:03:19.006Z,1.90
2018-01-18T05:05:48.042Z,2.53
2018-01-18T05:08:17.763Z,2.20
2018-01-18T05:10:47.407Z,2.30
2018-01-18T05:13:16.353Z,1.93
2018-01-18T05:15:47.325Z,2.47
2018-01-18T05:18:18.449Z,1.90
2018-01-18T05:20:46.356Z,2.03
2018-01-18T05:23:15.830Z,1.90
2018-01-18T05:25:46.578Z,2.30
2018-01-18T05:28:15.133Z,1.90
2018-01-18T05:30:46.184Z,2.13
2018-01-18T05:33:14.210Z,2.60
2018-01-18T05:35:42.230Z,1.90
2018-01-18T05:38:11.040Z,2.07
2018-01-18T05:40:41.929Z,1.80
2018-01-18T05:43:11.474Z,1.80
2018-01-18T05:45:41.128Z,2.13
2018-01-18T05:48:10.727Z,2.33
2018-01-18T05:50:40.499Z,2.17
2018-01-18T05:53:10.241Z,2.10
2018-01-18T05:55:38.263Z,2.00
2018-01-18T05:58:08.136Z,2.50
2018-01-18T06:00:36.273Z,2.40
2018-01-18T06:03:05.917Z,2.63
2018-01-18T06:08:11.043Z,1.90
2018-01-18T06:10:39.810Z,2.10
2018-01-18T06:13:10.894Z,1.73
2018-01-18T06:15:39.687Z,2.10
2018-01-18T06:18:08.481Z,2.10
2018-01-18T06:20:39.898Z,1.80
2018-01-18T06:23:08.925Z,1.80
2018-01-18T06:25:37.943Z,2.27
2018-01-18T06:28:06.327Z,2.53
2018-01-18T06:30:34.424Z,2.00
2018-01-18T06:33:10.654Z,2.23
2018-01-18T06:35:38.828Z,1.87
2018-01-18T06:38:07.664Z,1.83
2018-01-18T06:40:37.265Z,2.45
2018-01-18T06:43:08.779Z,2.23
2018-01-18T06:45:39.077Z,2.93
2018-01-18T06:48:07.123Z,2.67
2018-01-18T06:50:35.362Z,2.80
2018-01-18T06:53:05.161Z,2.23
2018-01-18T06:55:36.601Z,2.40
2018-01-18T06:58:09.000Z,1.90
2018-01-18T07:00:40.121Z,2.70
2018-01-18T07:03:12.470Z,2.10
2018-01-18T07:05:41.278Z,1.90
2018-01-18T07:08:10.152Z,1.80
2018-01-18T07:10:38.551Z,2.53
2018-01-18T07:13:08.178Z,2.20
2018-01-18T07:15:36.537Z,2.20
2018-01-18T07:18:05.230Z,2.30
2018-01-18T07:20:35.166Z,2.13
2018-01-18T07:23:05.769Z,2.10
2018-01-18T07:25:34.535Z,2.40
2018-01-18T07:28:05.605Z,4.13
2018-01-18T07:30:35.369Z,2.60
2018-01-18T07:33:06.661Z,2.30
2018-01-18T07:35:35.982Z,2.23
2018-01-18T07:38:04.608Z,1.90
2018-01-18T07:40:32.653Z,2.50
2018-01-18T07:43:00.649Z,2.27
2018-01-18T07:45:31.119Z,2.73
2018-01-18T07:48:02.577Z,2.33
2018-01-18T07:50:37.704Z,2.57
2018-01-18T07:53:07.933Z,2.83
2018-01-18T07:55:35.975Z,2.70
2018-01-18T07:58:07.258Z,2.40
2018-01-18T08:00:35.424Z,2.70
2018-01-18T08:03:09.035Z,2.10
2018-01-18T08:05:36.825Z,2.73
2018-01-18T08:08:04.602Z,2.40
2018-01-18T08:10:32.430Z,2.50
2018-01-18T08:13:00.435Z,3.13
2018-01-18T08:15:28.260Z,2.50
2018-01-18T08:17:56.048Z,2.70
2018-01-18T08:20:23.870Z,2.23
2018-01-18T08:22:51.643Z,2.43
2018-01-18T08:25:19.475Z,2.50
2018-01-18T08:27:47.326Z,2.73
2018-01-18T08:30:15.181Z,4.30
2018-01-18T08:32:42.947Z,3.07
2018-01-18T08:35:11.911Z,2.80
2018-01-18T08:37:39.675Z,3.00
2018-01-18T08:40:07.515Z,2.40
2018-01-18T08:42:36.112Z,2.77
2018-01-18T08:45:03.948Z,3.40
2018-01-18T08:47:31.719Z,2.73
2018-01-18T08:50:00.242Z,3.27
2018-01-18T08:52:27.994Z,2.20
2018-01-18T08:54:55.776Z,3.40
2018-01-18T08:57:23.570Z,2.37
2018-01-18T08:59:51.344Z,2.73
2018-01-18T09:02:19.119Z,2.10
2018-01-18T09:04:47.307Z,2.43
2018-01-18T09:07:15.123Z,2.50
2018-01-18T09:09:42.998Z,2.07
2018-01-18T09:12:10.793Z,2.33
2018-01-18T09:14:39.413Z,2.30
2018-01-18T09:17:07.206Z,2.80
2018-01-18T09:19:35.006Z,2.57
2018-01-18T09:22:02.848Z,2.40
2018-01-18T09:24:30.699Z,2.73
2018-01-18T09:26:58.499Z,2.20
2018-01-18T09:29:27.147Z,3.10
2018-01-18T09:31:54.974Z,2.53
2018-01-18T09:34:22.755Z,2.03
2018-01-18T09:36:50.555Z,2.67
2018-01-18T09:39:18.326Z,2.57
2018-01-18T09:41:46.112Z,3.30
2018-01-18T09:44:13.958Z,2.47
2018-01-18T09:46:41.751Z,2.70
2018-01-18T09:49:09.523Z,2.47
2018-01-18T09:51:38.080Z,2.30
2018-01-18T09:54:05.885Z,2.27
2018-01-18T09:56:33.657Z,2.60
2018-01-18T09:59:01.949Z,2.10
2018-01-18T10:01:29.790Z,2.53
2018-01-18T10:03:57.573Z,1.60
2018-01-18T10:06:25.355Z,2.17
2018-01-18T10:08:53.209Z,1.70
2018-01-18T10:11:21.062Z,2.30
2018-01-18T10:13:48.884Z,1.80
2018-01-18T10:16:17.445Z,1.87
2018-01-18T10:18:46.287Z,2.10
2018-01-18T10:21:14.192Z,2.47
2018-01-18T10:23:41.954Z,1.97
2018-01-18T10:26:09.757Z,1.90
2018-01-18T10:28:37.530Z,2.07
2018-01-18T10:31:05.394Z,2.00
2018-01-18T10:33:33.201Z,1.80
2018-01-18T10:36:01.150Z,1.70
2018-01-18T10:38:28.963Z,2.00
2018-01-18T10:40:56.767Z,2.15
2018-01-18T10:43:24.520Z,1.70
2018-01-18T10:45:54.789Z,2.05
2018-01-18T10:48:22.555Z,2.13
2018-01-18T10:50:50.403Z,1.80
2018-01-18T10:53:18.179Z,1.63
2018-01-18T10:55:46.001Z,2.20
2018-01-18T10:58:13.854Z,2.83
2018-01-18T11:00:42.458Z,3.20
2018-01-18T11:03:10.262Z,1.70
2018-01-18T11:05:38.098Z,2.30
2018-01-18T11:08:05.884Z,2.17
2018-01-18T11:10:33.713Z,2.10
2018-01-18T11:13:01.587Z,2.80
2018-01-18T11:15:29.471Z,1.80
2018-01-18T11:17:57.349Z,2.00
2018-01-18T11:20:25.128Z,1.90
2018-01-18T11:22:52.940Z,1.83
2018-01-18T11:25:20.698Z,2.03
2018-01-18T11:27:49.282Z,1.93
2018-01-18T11:30:17.868Z,1.73
2018-01-18T11:32:45.714Z,1.50
2018-01-18T11:35:14.268Z,1.93
2018-01-18T11:37:42.189Z,1.80
2018-01-18T11:40:09.966Z,1.70
2018-01-18T11:42:37.842Z,1.93
2018-01-18T11:45:05.734Z,2.00
2018-01-18T11:47:33.512Z,2.37
2018-01-18T11:50:02.063Z,1.37
2018-01-18T11:52:29.880Z,1.80
2018-01-18T11:54:58.442Z,2.23
2018-01-18T11:57:26.289Z,1.53
2018-01-18T11:59:54.135Z,1.83
2018-01-18T12:02:22.048Z,1.70
2018-01-18T12:04:50.626Z,1.67
2018-01-18T12:07:18.420Z,1.70
2018-01-18T12:09:56.671Z,2.37
2018-01-18T12:12:24.602Z,1.90
2018-01-18T12:14:52.401Z,1.77
2018-01-18T12:17:20.211Z,1.60
2018-01-18T12:19:48.738Z,1.73
2018-01-18T12:22:16.548Z,2.87
2018-01-18T12:24:45.108Z,1.93
2018-01-18T12:27:12.878Z,1.50
2018-01-18T12:29:40.673Z,1.53
2018-01-18T12:32:09.213Z,1.77
2018-01-18T12:34:36.998Z,1.60
2018-01-18T12:37:04.891Z,1.93
2018-01-18T12:39:33.444Z,2.10
2018-01-18T12:42:02.037Z,4.30
2018-01-18T12:44:29.847Z,2.70
2018-01-18T12:46:57.690Z,2.13
2018-01-18T12:49:25.474Z,2.20
2018-01-18T12:51:53.252Z,2.60
2018-01-18T12:54:21.033Z,1.77
2018-01-18T12:56:48.812Z,1.80
2018-01-18T12:59:16.604Z,2.50
2018-01-18T13:01:45.200Z,1.87
2018-01-18T13:04:13.743Z,2.23
2018-01-18T13:06:41.526Z,1.50
2018-01-18T13:09:10.123Z,2.50
2018-01-18T13:11:38.703Z,2.27
2018-01-18T13:14:07.251Z,2.60
2018-01-18T13:16:35.047Z,1.97
2018-01-18T13:19:03.644Z,2.40
2018-01-18T13:21:31.431Z,2.37
2018-01-18T13:23:59.220Z,3.30
2018-01-18T13:26:26.979Z,2.63
2018-01-18T13:28:54.743Z,2.57
2018-01-18T13:31:22.501Z,2.33
2018-01-18T13:33:50.315Z,3.47
2018-01-18T13:36:18.863Z,2.57
2018-01-18T13:38:46.619Z,3.17
2018-01-18T13:41:14.403Z,3.50
2018-01-18T13:43:42.250Z,4.80
2018-01-18T13:46:11.331Z,2.43
2018-01-18T13:48:39.151Z,3.57
2018-01-18T13:51:07.790Z,3.53
2018-01-18T13:53:35.753Z,3.50
2018-01-18T13:56:03.630Z,2.73
2018-01-18T13:58:32.216Z,2.60
2018-01-18T14:01:00.066Z,2.67
2018-01-18T14:03:28.680Z,2.50
2018-01-18T14:05:57.342Z,2.20
2018-01-18T14:08:25.161Z,2.97
2018-01-18T14:10:53.794Z,3.00
2018-01-18T14:13:21.612Z,2.67
2018-01-18T14:15:49.379Z,3.00
2018-01-18T14:18:17.913Z,2.87
2018-01-18T14:20:45.725Z,2.93
2018-01-18T14:23:13.636Z,3.50
2018-01-18T14:25:41.434Z,3.03
2018-01-18T14:28:09.973Z,2.70
2018-01-18T14:30:37.749Z,2.97
2018-01-18T14:33:05.625Z,3.00
2018-01-18T14:35:33.436Z,3.47
2018-01-18T14:38:01.229Z,3.00
2018-01-18T14:40:29.276Z,2.60
2018-01-18T14:42:57.080Z,3.20
2018-01-18T14:45:24.958Z,3.50
2018-01-18T14:47:52.805Z,2.73
2018-01-18T14:50:20.583Z,3.10
2018-01-18T14:52:48.445Z,3.60
2018-01-18T14:55:16.278Z,3.60
2018-01-18T14:57:44.142Z,3.57
2018-01-18T15:00:12.924Z,3.63
2018-01-18T15:02:40.702Z,3.17
2018-01-18T15:05:08.466Z,3.40
2018-01-18T15:07:36.444Z,2.93
2018-01-18T15:10:04.400Z,3.67
2018-01-18T15:12:32.204Z,4.00
2018-01-18T15:15:00.024Z,4.53
2018-01-18T15:17:27.814Z,3.63
2018-01-18T15:19:55.597Z,4.30
2018-01-18T15:22:23.449Z,4.00
2018-01-18T15:24:51.375Z,3.87
2018-01-18T15:27:19.151Z,4.20
2018-01-18T15:29:52.776Z,3.75
2018-01-18T15:32:20.896Z,4.37
2018-01-18T15:34:49.516Z,4.50
2018-01-18T15:37:17.307Z,4.90
2018-01-18T15:39:47.336Z,4.70
2018-01-18T15:42:17.351Z,4.90
2018-01-18T15:44:45.190Z,4.20
2018-01-18T15:47:13.015Z,5.63
2018-01-18T15:49:40.892Z,4.23
2018-01-18T15:52:12.084Z,4.27
2018-01-18T15:54:39.984Z,4.00
2018-01-18T15:57:08.541Z,4.30
2018-01-18T15:59:36.613Z,5.10
2018-01-18T16:02:04.418Z,3.93
2018-01-18T16:04:33.025Z,4.40
2018-01-18T16:07:01.087Z,5.03
2018-01-18T16:09:28.871Z,5.07
2018-01-18T16:11:56.649Z,4.90
2018-01-18T16:14:24.457Z,4.53
2018-01-18T16:16:53.010Z,4.57
2018-01-18T16:19:23.099Z,5.43
2018-01-18T16:21:50.898Z,6.43
2018-01-18T16:24:18.695Z,4.77
2018-01-18T16:26:46.505Z,4.97
2018-01-18T16:29:19.821Z,4.80
2018-01-18T16:31:48.015Z,4.93
2018-01-18T16:34:15.864Z,4.17
2018-01-18T16:36:44.937Z,5.30
2018-01-18T16:39:12.736Z,5.83
2018-01-18T16:41:40.603Z,5.27
2018-01-18T16:44:08.405Z,4.80
2018-01-18T16:46:36.197Z,4.97
2018-01-18T16:49:04.108Z,4.83
2018-01-18T16:51:31.930Z,6.00
2018-01-18T16:53:59.748Z,6.90
2018-01-18T16:56:28.334Z,6.60
2018-01-18T16:58:56.127Z,5.70
2018-01-18T17:01:23.901Z,5.87
2018-01-18T17:03:51.664Z,5.87
2018-01-18T17:06:19.479Z,13.30
2018-01-18T17:08:47.342Z,11.67
2018-01-18T17:11:15.985Z,11.07
2018-01-18T17:13:43.858Z,8.83
2018-01-18T17:16:11.803Z,9.53
2018-01-18T17:18:39.586Z,6.60
2018-01-18T17:21:07.514Z,7.43
2018-01-18T17:23:35.434Z,6.33
2018-01-18T17:26:03.323Z,6.60
2018-01-18T17:28:31.866Z,5.80
2018-01-18T17:30:59.646Z,6.40
2018-01-18T17:33:27.481Z,6.57
2018-01-18T17:35:55.371Z,5.90
2018-01-18T17:38:24.148Z,5.70
2018-01-18T17:40:52.051Z,5.50
2018-01-18T17:43:19.910Z,5.30
2018-01-18T17:45:47.725Z,4.83
2018-01-18T17:48:15.554Z,5.40
2018-01-18T17:50:44.935Z,6.20
2018-01-18T17:53:13.651Z,6.10
2018-01-18T17:55:41.469Z,6.67
2018-01-18T17:58:10.005Z,6.37
2018-01-18T18:00:37.919Z,5.43
2018-01-18T18:03:05.723Z,7.87
2018-01-18T18:05:34.327Z,8.07
2018-01-18T18:08:02.158Z,7.63
2018-01-18T18:10:31.648Z,7.13
2018-01-18T18:13:00.365Z,6.47
2018-01-18T18:15:29.146Z,6.70
2018-01-18T18:17:57.002Z,15.43
2018-01-18T18:20:25.563Z,15.37
2018-01-18T18:22:53.424Z,10.47
2018-01-18T18:25:21.215Z,11.03
2018-01-18T18:27:49.092Z,11.50
2018-01-18T18:30:16.896Z,7.10
2018-01-18T18:32:44.765Z,7.43
2018-01-18T18:35:12.779Z,7.50
2018-01-18T18:37:40.738Z,6.10
2018-01-18T18:40:08.610Z,6.27
2018-01-18T18:42:40.759Z,6.33
2018-01-18T18:45:09.456Z,6.13
2018-01-18T18:47:37.238Z,6.27
2018-01-18T18:50:05.140Z,6.23
2018-01-18T18:52:33.768Z,5.50
2018-01-18T18:55:01.588Z,6.83
2018-01-18T18:57:29.486Z,7.50
2018-01-18T18:59:57.326Z,7.30
2018-01-18T19:02:25.133Z,7.07
2018-01-18T19:04:52.968Z,8.63
2018-01-18T19:07:20.802Z,8.73
2018-01-18T19:09:48.625Z,8.97
2018-01-18T19:12:16.546Z,7.77
2018-01-18T19:14:46.349Z,7.33
2018-01-18T19:17:17.277Z,8.40
2018-01-18T19:19:45.124Z,8.30
2018-01-18T19:22:12.936Z,7.53
2018-01-18T19:24:40.745Z,7.17
2018-01-18T19:27:08.562Z,6.83
2018-01-18T19:29:36.382Z,6.87
2018-01-18T19:32:04.245Z,8.30
2018-01-18T19:34:32.076Z,5.60
2018-01-18T19:36:59.919Z,6.30
2018-01-18T19:39:27.709Z,6.17
2018-01-18T19:41:56.368Z,6.90
2018-01-18T19:44:24.234Z,6.37
2018-01-18T19:46:52.050Z,5.47
2018-01-18T19:49:19.850Z,6.40
2018-01-18T19:51:47.673Z,5.77
2018-01-18T19:54:19.339Z,6.30
2018-01-18T19:56:47.153Z,5.10
2018-01-18T19:59:14.953Z,5.93
2018-01-18T20:01:42.826Z,9.73
2018-01-18T20:04:10.586Z,16.93
2018-01-18T20:06:38.523Z,10.63
2018-01-18T20:09:06.339Z,8.70
2018-01-18T20:11:34.145Z,8.50
2018-01-18T20:14:01.958Z,7.50
2018-01-18T20:16:29.754Z,7.07
2018-01-18T20:18:57.547Z,7.80
2018-01-18T20:21:25.328Z,6.40
2018-01-18T20:23:53.109Z,6.20
2018-01-18T20:26:20.917Z,7.37
2018-01-18T20:28:49.655Z,6.40
2018-01-18T20:31:17.442Z,5.93
2018-01-18T20:33:45.296Z,6.37
2018-01-18T20:36:13.178Z,6.60
2018-01-18T20:38:41.739Z,5.87
2018-01-18T20:41:09.563Z,4.47
2018-01-18T20:43:37.344Z,5.03
2018-01-18T20:46:05.233Z,4.47
2018-01-18T20:48:33.121Z,4.90
2018-01-18T20:51:00.908Z,4.63
2018-01-18T20:53:29.470Z,4.50
2018-01-18T20:55:57.260Z,4.13
2018-01-18T20:58:25.051Z,5.60
2018-01-18T21:00:52.827Z,6.33
2018-01-18T21:03:20.599Z,6.67
2018-01-18T21:05:48.372Z,4.50
2018-01-18T21:08:16.134Z,4.23
2018-01-18T21:10:43.957Z,6.03
2018-01-18T21:13:16.237Z,6.03
2018-01-18T21:15:44.384Z,5.90
2018-01-18T21:18:13.023Z,5.10
2018-01-18T21:20:40.873Z,9.70
2018-01-18T21:23:09.236Z,9.30
2018-01-18T21:25:37.167Z,11.13
2018-01-18T21:28:05.043Z,7.97
2018-01-18T21:30:33.624Z,7.70
2018-01-18T21:33:03.671Z,8.10
2018-01-18T21:35:31.724Z,7.70
2018-01-18T21:37:59.632Z,7.57
2018-01-18T21:40:27.626Z,6.30
2018-01-18T21:42:55.416Z,8.13
2018-01-18T21:45:23.999Z,7.07
2018-01-18T21:47:52.559Z,5.90
2018-01-18T21:50:20.376Z,6.10
2018-01-18T21:52:48.214Z,6.60
2018-01-18T21:55:16.016Z,6.57
2018-01-18T21:57:44.668Z,5.50
2018-01-18T22:00:13.251Z,5.50
2018-01-18T22:02:41.822Z,5.40
2018-01-18T22:05:10.354Z,5.30
2018-01-18T22:07:38.186Z,5.27
2018-01-18T22:10:06.045Z,6.10
2018-01-18T22:12:33.998Z,5.37
2018-01-18T22:15:01.823Z,5.13
2018-01-18T22:17:29.687Z,5.33
2018-01-18T22:19:57.479Z,5.20
2018-01-18T22:22:25.303Z,6.33
2018-01-18T22:24:53.180Z,4.57
2018-01-18T22:27:21.037Z,6.28
2018-01-18T22:29:48.812Z,6.60
2018-01-18T22:32:16.654Z,6.20
2018-01-18T22:34:44.518Z,6.90
2018-01-18T22:37:12.327Z,5.97
2018-01-18T22:39:40.130Z,7.97
2018-01-18T22:42:08.659Z,9.07
2018-01-18T22:44:36.483Z,8.77
2018-01-18T22:47:05.008Z,7.50
2018-01-18T22:49:34.049Z,9.60
2018-01-18T22:52:01.852Z,8.90
2018-01-18T22:54:29.625Z,7.83
2018-01-18T22:56:57.481Z,7.40
2018-01-18T22:59:25.383Z,7.87
2018-01-18T23:01:53.175Z,5.27
2018-01-18T23:04:21.720Z,5.63
2018-01-18T23:06:49.502Z,6.53
2018-01-18T23:09:17.271Z,6.33
2018-01-18T23:11:45.119Z,4.90
2018-01-18T23:14:12.912Z,6.00
2018-01-18T23:16:41.443Z,5.07
2018-01-18T23:19:09.249Z,6.60
2018-01-18T23:21:37.046Z,6.50
2018-01-18T23:24:04.837Z,6.00
2018-01-18T23:26:32.700Z,5.73
2018-01-18T23:29:00.495Z,5.63
2018-01-18T23:31:28.327Z,6.37
2018-01-18T23:33:56.108Z,7.40
2018-01-18T23:36:23.948Z,8.27
2018-01-18T23:38:51.724Z,6.53
2018-01-18T23:41:19.646Z,6.60
2018-01-18T23:43:48.297Z,5.90
2018-01-18T23:46:16.163Z,5.40
2018-01-18T23:48:43.980Z,4.80
2018-01-18T23:51:11.797Z,7.40
2018-01-18T23:53:39.615Z,6.00
2018-01-18T23:56:07.459Z,6.00
2018-01-18T23:58:35.255Z,6.87
